Time;durP1;ratioP1;P1;durP2;ratioP2;P2;SDS_P1;SDS_P2;PMS_P1;PMS_P2;Temp;Humidity;BMP_temperature;BMP_pressure;BME280_temperature;BME280_humidity;BME280_pressure;Samples;Min_cycle;Max_cycle;Signal;HPM_P1;HPM_P2
2023/08/23 00:00:04;;;;;;;10.32;4.60;;;;;;;18.94;86.99;101165.72;5050999;28;20122;-65
2023/08/23 00:02:31;;;;;;;14.35;6.45;;;;;;;18.92;87.35;101158.84;5037303;28;20057;-65
2023/08/23 00:04:58;;;;;;;10.05;6.15;;;;;;;18.91;87.32;101149.13;5055371;28;20084;-64
2023/08/23 00:07:26;;;;;;;9.80;5.20;;;;;;;18.90;87.28;101153.63;5039986;28;20056;-64
2023/08/23 00:09:53;;;;;;;18.08;6.10;;;;;;;18.90;87.11;101152.78;5061728;28;20147;-65
2023/08/23 00:12:20;;;;;;;8.23;5.13;;;;;;;18.90;87.06;101155.44;5055425;28;20803;-65
2023/08/23 00:14:47;;;;;;;7.93;5.18;;;;;;;18.89;86.73;101164.44;5055839;28;20118;-64
2023/08/23 00:17:15;;;;;;;14.10;5.55;;;;;;;18.87;86.94;101161.91;5057990;28;20060;-63
2023/08/23 00:19:42;;;;;;;11.32;4.82;;;;;;;18.87;87.01;101161.91;5061167;28;20064;-64
2023/08/23 00:22:09;;;;;;;10.50;5.70;;;;;;;18.87;87.20;101163.75;5057690;28;20132;-63
2023/08/23 00:24:36;;;;;;;14.40;5.90;;;;;;;18.86;86.75;101156.69;5041451;28;21428;-65
2023/08/23 00:27:04;;;;;;;14.68;5.82;;;;;;;18.85;86.80;101160.34;5060188;28;20053;-64
2023/08/23 00:29:31;;;;;;;11.13;5.22;;;;;;;18.83;87.54;101168.47;5048638;28;20675;-65
2023/08/23 00:31:58;;;;;;;12.48;5.60;;;;;;;18.82;87.84;101164.13;5052828;28;20057;-64
2023/08/23 00:34:25;;;;;;;12.77;6.05;;;;;;;18.79;87.71;101161.72;5055944;28;20176;-63
2023/08/23 00:36:53;;;;;;;9.55;5.05;;;;;;;18.80;87.58;101154.56;5059635;28;20144;-66
2023/08/23 00:39:20;;;;;;;12.27;5.93;;;;;;;18.81;87.54;101165.09;5033053;28;20065;-64
2023/08/23 00:41:47;;;;;;;11.25;5.63;;;;;;;18.79;87.63;101152.88;5055198;28;20139;-62
2023/08/23 00:44:14;;;;;;;11.02;5.32;;;;;;;18.80;87.74;101162.56;5061000;28;20163;-63
2023/08/23 00:46:42;;;;;;;12.38;5.50;;;;;;;18.79;87.23;101163.53;5059194;28;20060;-65
2023/08/23 00:49:10;;;;;;;12.95;5.25;;;;;;;18.78;87.60;101161.81;5062184;28;20080;-64
2023/08/23 00:51:37;;;;;;;7.32;4.93;;;;;;;18.76;87.61;101163.78;5060340;28;20064;-63
2023/08/23 00:54:05;;;;;;;14.13;5.60;;;;;;;18.75;87.64;101164.78;5082406;22;20056;-66
2023/08/23 00:56:33;;;;;;;8.63;5.45;;;;;;;18.74;87.95;101168.41;5080664;28;20057;-63
2023/08/23 00:59:00;;;;;;;9.90;5.68;;;;;;;18.72;87.88;101164.03;5075377;28;20743;-64
2023/08/23 01:01:28;;;;;;;8.48;4.78;;;;;;;18.71;88.57;101173.03;5074800;28;20052;-64
2023/08/23 01:03:57;;;;;;;7.18;5.00;;;;;;;18.70;88.67;101167.84;5065707;28;20048;-63
2023/08/23 01:06:27;;;;;;;12.52;5.60;;;;;;;18.68;88.56;101167.06;5076444;28;20091;-63
2023/08/23 01:09:19;;;;;;;15.70;5.75;;;;;;;18.67;88.51;101168.88;5080437;28;20056;-64
2023/08/23 01:12:25;;;;;;;9.57;4.65;;;;;;;18.66;88.13;101171.69;5080061;28;20477;-66
2023/08/23 01:15:07;;;;;;;11.38;4.82;;;;;;;18.64;88.09;101171.84;5079032;28;20060;-66
2023/08/23 01:17:41;;;;;;;15.05;6.13;;;;;;;18.62;88.66;101168.44;5076494;28;20057;-61
2023/08/23 01:20:29;;;;;;;9.10;5.63;;;;;;;18.60;88.51;101167.72;5075770;28;20044;-64
2023/08/23 01:23:16;;;;;;;11.27;5.15;;;;;;;18.58;88.89;101168.81;5062264;28;20425;-63
2023/08/23 01:25:50;;;;;;;10.60;5.40;;;;;;;18.57;88.79;101164.47;5067874;28;20527;-65
2023/08/23 01:28:51;;;;;;;12.50;5.63;;;;;;;18.55;89.35;101169.06;5079467;28;20110;-63
2023/08/23 01:31:33;;;;;;;;;;;;;;;;;;;;;
2023/08/23 01:34:34;;;;;;;10.63;5.93;;;;;;;18.52;89.63;101172.00;5095684;28;20479;-65
2023/08/23 01:37:06;;;;;;;10.50;5.85;;;;;;;18.47;90.00;101157.25;5086653;28;20052;-63
2023/08/23 01:39:48;;;;;;;13.23;6.53;;;;;;;18.45;90.55;101161.84;5090436;28;20357;-64
2023/08/23 01:42:32;;;;;;;12.55;5.57;;;;;;;18.44;90.40;101161.97;5074748;28;20056;-64
2023/08/23 01:45:08;;;;;;;8.32;5.13;;;;;;;18.41;90.51;101162.22;5053716;28;20158;-64
2023/08/23 01:47:41;;;;;;;10.77;5.68;;;;;;;18.40;90.92;101165.88;5089846;28;20048;-65
2023/08/23 01:50:18;;;;;;;8.80;6.35;;;;;;;18.38;91.16;101162.50;5094613;28;20097;-63
2023/08/23 01:52:51;;;;;;;14.20;6.00;;;;;;;18.37;91.52;101169.66;5098380;28;20043;-63
2023/08/23 01:55:38;;;;;;;15.70;5.65;;;;;;;18.34;91.63;101163.72;5094017;28;20043;-63
2023/08/23 01:58:28;;;;;;;8.40;6.00;;;;;;;18.32;91.82;101171.84;5093904;28;20039;-64
2023/08/23 02:01:16;;;;;;;9.18;5.07;;;;;;;18.29;91.81;101168.59;5088581;28;20511;-69
2023/08/23 02:03:54;;;;;;;11.52;5.20;;;;;;;18.26;92.72;101166.19;5090913;28;20446;-64
2023/08/23 02:06:27;;;;;;;10.45;6.55;;;;;;;18.21;92.90;101167.41;5088424;28;20159;-63
2023/08/23 02:09:02;;;;;;;8.77;6.05;;;;;;;18.21;92.90;101177.22;5090396;28;20081;-64
2023/08/23 02:11:37;;;;;;;13.20;6.57;;;;;;;18.19;93.21;101168.50;5052515;28;20058;-64
2023/08/23 02:14:22;;;;;;;14.25;6.15;;;;;;;18.18;93.28;101170.31;5083909;28;20131;-65
2023/08/23 02:16:55;;;;;;;7.95;5.65;;;;;;;18.16;93.29;101158.94;5091763;28;20043;-65
2023/08/23 02:19:26;;;;;;;;;;;;;;;18.15;93.76;101167.06;5089349;28;20094;-63
2023/08/23 02:21:57;;;;;;;12.68;6.05;;;;;;;18.13;94.04;101161.00;5093415;28;19935;-63
2023/08/23 02:24:26;;;;;;;7.75;5.88;;;;;;;18.10;94.24;101161.25;5051080;28;20452;-66
2023/08/23 02:26:53;;;;;;;11.98;6.20;;;;;;;18.09;94.18;101156.91;5092389;28;20055;-62
2023/08/23 02:29:21;;;;;;;12.07;5.90;;;;;;;18.06;94.30;101157.16;5086470;28;20130;-65
2023/08/23 02:31:48;;;;;;;13.52;5.97;;;;;;;18.03;94.41;101152.94;5088997;28;20132;-63
2023/08/23 02:34:15;;;;;;;9.90;5.43;;;;;;;18.03;94.52;101155.59;5079535;28;20071;-60
2023/08/23 02:36:42;;;;;;;8.65;5.75;;;;;;;18.04;94.42;101149.28;5089377;28;20146;-63
2023/08/23 02:39:10;;;;;;;8.68;5.82;;;;;;;18.04;94.75;101154.63;5072013;28;20067;-62
2023/08/23 02:41:37;;;;;;;10.07;5.80;;;;;;;18.02;94.67;101151.25;5090442;28;20136;-65
2023/08/23 02:44:05;;;;;;;10.73;6.55;;;;;;;18.02;95.55;101145.06;5089865;28;20087;-63
2023/08/23 02:46:32;;;;;;;15.50;6.57;;;;;;;17.99;95.58;101148.81;5089359;28;20055;-62
2023/08/23 02:48:59;;;;;;;11.60;5.28;;;;;;;17.96;95.62;101141.91;5086218;28;20151;-63
2023/08/23 02:51:26;;;;;;;11.32;5.60;;;;;;;17.96;95.73;101143.72;5086087;28;20060;-64
2023/08/23 02:53:54;;;;;;;9.05;5.32;;;;;;;17.94;95.71;101140.38;5084935;28;20120;-63
2023/08/23 02:56:21;;;;;;;9.23;5.93;;;;;;;17.92;95.97;101144.94;5080254;28;20143;-61
2023/08/23 02:58:49;;;;;;;10.35;6.13;;;;;;;17.89;96.29;101146.06;5059001;28;20145;-61
2023/08/23 03:01:17;;;;;;;10.40;5.78;;;;;;;17.86;96.62;101143.63;5070609;28;20102;-60
2023/08/23 03:03:44;;;;;;;12.10;5.97;;;;;;;17.86;96.39;101148.97;5067606;28;20485;-63
2023/08/23 03:06:11;;;;;;;9.38;5.50;;;;;;;17.85;97.14;101149.09;5068824;28;20064;-62
2023/08/23 03:08:38;;;;;;;11.65;6.40;;;;;;;17.81;97.32;101140.50;5060431;28;20056;-63
2023/08/23 03:11:07;;;;;;;9.30;6.45;;;;;;;17.79;97.70;101145.13;5086245;28;20044;-65
2023/08/23 03:13:34;;;;;;;9.60;6.05;;;;;;;17.76;97.93;101150.69;5083287;28;20111;-64
2023/08/23 03:16:02;;;;;;;9.80;5.45;;;;;;;17.76;98.06;101149.84;5072365;28;20127;-63
2023/08/23 03:18:29;;;;;;;11.65;6.22;;;;;;;17.75;98.19;101148.16;5066316;28;20072;-62
2023/08/23 03:20:57;;;;;;;9.98;6.25;;;;;;;17.74;98.13;101147.28;5055905;28;20492;-63
2023/08/23 03:23:24;;;;;;;11.63;5.93;;;;;;;17.73;98.40;101145.56;5069289;28;20076;-62
2023/08/23 03:25:51;;;;;;;10.93;5.63;;;;;;;17.71;98.64;101147.53;5077237;28;20382;-63
2023/08/23 03:28:18;;;;;;;9.88;5.20;;;;;;;17.69;98.73;101142.31;5074150;28;20144;-62
2023/08/23 03:30:46;;;;;;;8.13;5.68;;;;;;;17.67;99.25;101144.25;5077635;28;20455;-64
2023/08/23 03:33:13;;;;;;;17.88;7.25;;;;;;;17.64;99.57;101147.16;5078427;28;20079;-62
2023/08/23 03:35:40;;;;;;;9.75;6.57;;;;;;;17.61;99.93;101142.09;5077413;28;20097;-63
2023/08/23 03:38:08;;;;;;;12.27;6.68;;;;;;;17.60;100.00;101156.34;5071860;28;20101;-63
2023/08/23 03:40:36;;;;;;;11.18;6.30;;;;;;;17.56;100.00;101149.63;5074578;28;20060;-65
2023/08/23 03:43:05;;;;;;;8.90;5.95;;;;;;;17.54;100.00;101153.34;5071966;28;20045;-62
2023/08/23 03:45:33;;;;;;;20.55;7.03;;;;;;;17.54;100.00;101154.19;5066736;28;20132;-65
2023/08/23 03:48:01;;;;;;;8.13;6.47;;;;;;;17.53;100.00;101149.00;5052836;28;20067;-63
2023/08/23 03:50:29;;;;;;;19.52;6.43;;;;;;;17.52;100.00;101155.31;5048482;28;20076;-63
2023/08/23 03:52:56;;;;;;;10.85;6.95;;;;;;;17.51;100.00;101153.59;5053417;28;21048;-63
2023/08/23 03:55:23;;;;;;;15.52;6.72;;;;;;;17.47;100.00;101158.31;5069923;28;20119;-65
2023/08/23 03:57:52;;;;;;;11.75;6.75;;;;;;;17.47;100.00;101155.63;5070674;28;20142;-64
2023/08/23 04:00:19;;;;;;;13.75;6.85;;;;;;;17.48;100.00;101152.03;5072484;28;20132;-62
2023/08/23 04:02:46;;;;;;;11.57;6.63;;;;;;;17.46;100.00;101153.94;5062875;28;20083;-63
2023/08/23 04:05:14;;;;;;;11.80;6.15;;;;;;;17.46;100.00;101152.13;5053566;28;20135;-64
2023/08/23 04:07:42;;;;;;;12.65;7.07;;;;;;;17.45;100.00;101154.94;5067486;28;20390;-61
2023/08/23 04:10:09;;;;;;;14.77;7.00;;;;;;;17.46;100.00;101153.94;5078416;28;20075;-65
2023/08/23 04:12:36;;;;;;;15.88;7.47;;;;;;;17.48;100.00;101152.03;5071692;28;20060;-64
2023/08/23 04:15:04;;;;;;;14.73;7.30;;;;;;;17.48;100.00;101136.06;5083133;28;20669;-63
2023/08/23 04:17:32;;;;;;;11.30;6.88;;;;;;;17.49;100.00;101151.06;5074125;28;20397;-63
2023/08/23 04:19:59;;;;;;;9.80;6.55;;;;;;;17.51;100.00;101146.44;5089307;28;20079;-64
2023/08/23 04:22:26;;;;;;;15.00;8.02;;;;;;;17.52;100.00;101153.47;5090208;28;20056;-62
2023/08/23 04:24:54;;;;;;;12.32;7.47;;;;;;;17.51;100.00;101159.75;5093231;28;20086;-65
2023/08/23 04:27:21;;;;;;;11.07;6.53;;;;;;;17.53;100.00;101157.00;5087634;28;20067;-65
2023/08/23 04:29:48;;;;;;;15.23;6.80;;;;;;;17.56;100.00;101159.38;5076114;28;20068;-60
2023/08/23 04:32:15;;;;;;;17.50;8.30;;;;;;;17.58;100.00;101149.47;5049350;28;20452;-64
2023/08/23 04:34:43;;;;;;;14.65;7.35;;;;;;;17.61;100.00;101141.25;5076843;28;20435;-67
2023/08/23 04:37:10;;;;;;;16.35;8.18;;;;;;;17.62;100.00;101148.25;5070029;28;20056;-62
2023/08/23 04:39:38;;;;;;;13.30;7.25;;;;;;;17.63;100.00;101157.94;5071137;28;20048;-62
2023/08/23 04:42:05;;;;;;;12.05;7.45;;;;;;;17.64;100.00;101148.97;5072102;28;20051;-65
2023/08/23 04:44:35;;;;;;;11.48;7.40;;;;;;;17.63;100.00;101145.47;5056171;28;20060;-65
2023/08/23 04:47:02;;;;;;;12.52;7.60;;;;;;;17.66;100.00;101155.88;5068381;28;20125;-66
2023/08/23 04:49:30;;;;;;;13.32;7.10;;;;;;;17.65;100.00;101150.66;5051751;28;20147;-64
2023/08/23 04:51:57;;;;;;;11.75;7.10;;;;;;;17.66;99.91;101150.56;5073261;28;20082;-63
2023/08/23 04:54:25;;;;;;;11.88;7.05;;;;;;;17.71;99.79;101147.53;5088877;28;20175;-66
2023/08/23 04:56:52;;;;;;;10.77;6.43;;;;;;;17.76;99.40;101152.50;5096829;28;20670;-64
2023/08/23 04:59:19;;;;;;;15.55;7.28;;;;;;;17.80;99.32;101149.47;5092868;28;20060;-61
2023/08/23 05:01:46;;;;;;;10.90;7.25;;;;;;;17.84;99.05;101156.25;5087883;28;20501;-65
2023/08/23 05:04:16;;;;;;;13.60;7.60;;;;;;;17.87;99.09;101147.16;5075049;28;20043;-63
2023/08/23 05:06:43;;;;;;;13.65;6.88;;;;;;;17.92;98.68;101147.63;5098943;28;20048;-64
2023/08/23 05:09:10;;;;;;;11.10;7.43;;;;;;;17.94;98.39;101157.19;5104808;28;20051;-63
2023/08/23 05:11:37;;;;;;;11.27;6.55;;;;;;;18.02;98.14;101150.41;5102045;28;20075;-65
2023/08/23 05:14:05;;;;;;;17.73;7.55;;;;;;;18.05;98.13;101158.13;5087850;28;20051;-64
2023/08/23 05:16:32;;;;;;;11.40;7.97;;;;;;;18.05;98.39;101148.31;5098189;28;20076;-65
2023/08/23 05:18:59;;;;;;;11.85;7.25;;;;;;;18.09;98.23;101155.06;5079315;28;20515;-60
2023/08/23 05:21:26;;;;;;;9.32;7.20;;;;;;;18.17;97.66;101151.78;5087077;28;20151;-61
2023/08/23 05:23:54;;;;;;;17.23;7.05;;;;;;;18.23;96.98;101143.28;5094787;28;20148;-65
2023/08/23 05:26:21;;;;;;;13.18;8.25;;;;;;;18.30;96.80;101143.63;5097085;28;20068;-61
2023/08/23 05:28:48;;;;;;;11.57;6.93;;;;;;;18.36;96.55;101148.44;5064520;28;21674;-61
2023/08/23 05:31:15;;;;;;;15.80;7.88;;;;;;;18.39;96.23;101151.69;5082405;28;20126;-62
2023/08/23 05:33:43;;;;;;;10.77;6.65;;;;;;;18.48;95.55;101160.75;5091224;28;20523;-62
2023/08/23 05:36:10;;;;;;;12.68;7.90;;;;;;;18.53;95.32;101155.88;5089059;28;20143;-63
2023/08/23 05:38:37;;;;;;;12.27;6.60;;;;;;;18.58;95.23;101150.16;5084897;28;20091;-63
2023/08/23 05:41:05;;;;;;;11.30;7.03;;;;;;;18.67;94.86;101147.56;5096430;28;20097;-65
2023/08/23 05:43:32;;;;;;;11.93;6.78;;;;;;;18.80;94.61;101154.56;5086446;28;20625;-63
2023/08/23 05:45:59;;;;;;;16.75;6.68;;;;;;;18.87;93.77;101153.91;5083669;28;20072;-64
2023/08/23 05:48:27;;;;;;;15.82;6.80;;;;;;;18.97;93.33;101152.13;5087277;28;20052;-61
2023/08/23 05:50:54;;;;;;;11.45;6.07;;;;;;;19.08;92.89;101163.69;5087844;28;21158;-63
2023/08/23 05:53:22;;;;;;;9.82;6.25;;;;;;;19.17;92.26;101160.22;5067163;28;20115;-62
2023/08/23 05:55:50;;;;;;;11.93;7.47;;;;;;;19.26;91.56;101161.25;5094831;28;20076;-63
2023/08/23 05:58:18;;;;;;;21.10;7.13;;;;;;;19.35;91.10;101158.63;5090676;28;20067;-61
2023/08/23 06:00:46;;;;;;;8.00;6.28;;;;;;;19.47;90.79;101156.72;5080709;28;20143;-59
2023/08/23 06:03:14;;;;;;;11.52;7.47;;;;;;;19.57;89.92;101157.59;5089712;28;20201;-57
2023/08/23 06:05:43;;;;;;;17.13;8.02;;;;;;;19.66;90.27;101154.13;5081758;28;20062;-62
2023/08/23 06:08:10;;;;;;;22.23;6.85;;;;;;;19.77;89.60;101153.19;5089584;28;20083;-60
2023/08/23 06:10:38;;;;;;;12.30;6.93;;;;;;;19.86;88.43;101146.19;5092047;28;20105;-62
2023/08/23 06:13:05;;;;;;;11.15;6.40;;;;;;;19.95;88.09;101156.91;5089026;28;20938;-63
2023/08/23 06:15:32;;;;;;;15.38;7.30;;;;;;;20.06;87.54;101150.56;5086714;28;20134;-60
2023/08/23 06:18:00;;;;;;;17.10;6.85;;;;;;;20.18;87.25;101151.28;5091829;28;20081;-62
2023/08/23 06:20:28;;;;;;;13.77;6.35;;;;;;;20.28;85.88;101145.94;5092383;28;20404;-62
2023/08/23 06:22:57;;;;;;;25.83;6.88;;;;;;;20.36;85.99;101154.13;5082014;28;20112;-62
2023/08/23 06:25:24;;;;;;;8.75;6.03;;;;;;;20.48;85.51;101153.00;5097825;28;20043;-63
2023/08/23 06:27:52;;;;;;;16.27;7.63;;;;;;;20.62;85.13;101157.91;5093582;28;20427;-63
2023/08/23 06:30:21;;;;;;;14.40;6.43;;;;;;;20.72;84.21;101158.75;5087591;28;20043;-61
2023/08/23 06:32:49;;;;;;;10.98;6.38;;;;;;;20.84;83.23;101163.94;5102044;28;20125;-61
2023/08/23 06:35:17;;;;;;;13.35;6.05;;;;;;;20.91;82.03;101167.75;5081142;28;20128;-59
2023/08/23 06:37:44;;;;;;;11.15;6.25;;;;;;;21.04;81.41;101164.75;5072429;28;20110;-64
2023/08/23 06:40:13;;;;;;;9.40;5.80;;;;;;;21.12;81.10;101170.19;5086707;28;20139;-63
2023/08/23 06:42:41;;;;;;;13.02;6.20;;;;;;;21.23;80.69;101173.56;5087354;28;20538;-60
2023/08/23 06:45:09;;;;;;;8.55;5.68;;;;;;;21.30;79.40;101170.28;5099043;28;20075;-61
2023/08/23 06:47:37;;;;;;;14.93;6.35;;;;;;;21.32;79.30;101166.50;5087203;28;20078;-62
2023/08/23 06:50:05;;;;;;;13.02;5.38;;;;;;;21.39;78.33;101170.31;5090864;28;20188;-60
2023/08/23 06:52:39;;;;;;;16.45;5.78;;;;;;;21.36;76.86;101169.75;5074852;28;20062;-60
2023/08/23 06:55:06;;;;;;;12.43;6.20;;;;;;;21.43;77.07;101181.53;5095727;28;20474;-62
2023/08/23 06:57:34;;;;;;;14.55;5.75;;;;;;;21.58;75.96;101166.69;5095374;28;20135;-60
2023/08/23 07:00:01;;;;;;;8.25;5.68;;;;;;;21.69;75.44;101168.31;5086422;28;20215;-63
2023/08/23 07:02:28;;;;;;;15.40;5.07;;;;;;;21.83;75.24;101170.47;5086258;28;20159;-62
2023/08/23 07:04:55;;;;;;;12.93;5.63;;;;;;;21.95;74.54;101165.75;5086836;28;20146;-60
2023/08/23 07:07:23;;;;;;;7.50;4.97;;;;;;;22.06;74.59;101170.91;5094337;28;20355;-63
2023/08/23 07:09:50;;;;;;;10.30;5.03;;;;;;;22.08;73.58;101163.56;5095862;28;20079;-61
2023/08/23 07:12:17;;;;;;;6.28;4.78;;;;;;;22.21;73.45;101165.91;5092878;28;20047;-61
2023/08/23 07:14:49;;;;;;;11.02;5.82;;;;;;;22.29;72.28;101170.47;5101169;28;20105;-58
2023/08/23 07:17:17;;;;;;;14.40;5.68;;;;;;;22.37;72.19;101170.56;5091433;28;20078;-63
2023/08/23 07:19:44;;;;;;;8.00;4.43;;;;;;;22.47;71.82;101163.28;5090948;28;20094;-64
2023/08/23 07:22:12;;;;;;;7.63;3.78;;;;;;;;;;5091640;28;20123;-62
2023/08/23 07:24:39;;;;;;;9.23;4.45;;;;;;;22.35;67.69;101173.41;5072957;28;20087;-63
2023/08/23 07:27:06;;;;;;;7.68;3.83;;;;;;;22.30;68.67;101182.91;5091522;28;20143;-64
2023/08/23 07:29:36;;;;;;;8.48;3.30;;;;;;;22.45;67.68;101182.22;5093431;28;20065;-60
2023/08/23 07:32:04;;;;;;;7.25;3.10;;;;;;;22.46;65.67;101185.72;5094216;28;20121;-63
2023/08/23 07:34:31;;;;;;;9.02;3.55;;;;;;;22.62;65.48;101177.84;5072963;28;20132;-63
2023/08/23 07:36:59;;;;;;;10.82;3.63;;;;;;;22.61;65.23;101178.84;5089028;28;20067;-61
2023/08/23 07:39:27;;;;;;;6.47;3.88;;;;;;;22.71;65.98;101181.44;5090299;28;20098;-62
2023/08/23 07:41:55;;;;;;;9.15;3.90;;;;;;;22.92;65.67;101173.91;5090951;28;20063;-62
2023/08/23 07:44:22;;;;;;;9.23;3.10;;;;;;;23.00;64.51;101183.84;5055050;28;20142;-62
2023/08/23 07:46:53;;;;;;;8.35;2.90;;;;;;;23.22;63.53;101190.53;5087649;28;20537;-63
2023/08/23 07:49:20;;;;;;;8.73;3.35;;;;;;;23.34;63.53;101183.06;5094411;28;20075;-63
2023/08/23 07:51:48;;;;;;;7.82;3.92;;;;;;;23.49;63.15;101179.59;5090330;28;20052;-62
2023/08/23 07:54:15;;;;;;;11.02;3.85;;;;;;;23.58;62.91;101183.16;5078663;28;20148;-61
2023/08/23 07:56:42;;;;;;;10.55;3.17;;;;;;;23.61;61.12;101188.22;5097588;28;20404;-61
2023/08/23 07:59:10;;;;;;;4.53;2.28;;;;;;;23.61;59.46;101203.50;5079596;28;20544;-61
2023/08/23 08:01:37;;;;;;;8.90;2.72;;;;;;;23.59;59.28;101197.44;5090077;28;20075;-61
2023/08/23 08:04:04;;;;;;;3.88;2.25;;;;;;;23.77;58.81;101200.06;5094382;28;20090;-62
2023/08/23 08:06:32;;;;;;;8.02;2.40;;;;;;;23.77;56.95;101202.75;5091112;28;20147;-60
2023/08/23 08:08:59;;;;;;;8.35;2.47;;;;;;;23.86;56.44;101205.31;5090553;28;20570;-64
2023/08/23 08:11:26;;;;;;;4.45;2.15;;;;;;;23.85;56.96;101203.63;5088718;28;20159;-59
2023/08/23 08:13:53;;;;;;;3.92;2.17;;;;;;;23.87;56.04;101203.47;5091503;28;20123;-62
2023/08/23 08:16:21;;;;;;;12.52;2.47;;;;;;;23.96;56.55;101191.75;5088560;28;20172;-61
2023/08/23 08:18:48;;;;;;;6.03;2.30;;;;;;;24.13;55.55;101193.44;5095143;28;20131;-63
2023/08/23 08:21:17;;;;;;;8.93;2.50;;;;;;;24.00;56.09;101195.75;5099909;28;20557;-57
2023/08/23 08:24:11;;;;;;;5.40;2.00;;;;;;;24.13;56.19;101193.44;5087180;28;20120;-61
2023/08/23 08:26:40;;;;;;;3.35;2.05;;;;;;;24.01;55.80;101189.41;5090582;28;20098;-59
2023/08/23 08:29:07;;;;;;;4.47;2.03;;;;;;;24.15;55.17;101196.81;5099195;28;20083;-58
2023/08/23 08:31:34;;;;;;;7.13;1.73;;;;;;;24.14;55.24;101195.16;5092832;28;20092;-63
2023/08/23 08:34:01;;;;;;;4.15;2.00;;;;;;;24.18;55.27;101196.50;5090727;28;20524;-63
2023/08/23 08:36:29;;;;;;;5.57;2.03;;;;;;;24.35;55.75;101196.50;5089205;28;20044;-62
2023/08/23 08:38:56;;;;;;;6.32;2.13;;;;;;;24.28;56.02;101204.41;5095532;28;20089;-62
2023/08/23 08:41:23;;;;;;;4.50;2.40;;;;;;;24.22;56.50;101208.59;5099792;28;20056;-61
2023/08/23 08:43:52;;;;;;;7.80;2.30;;;;;;;24.12;57.41;101207.91;5105999;28;20052;-64
2023/08/23 08:46:19;;;;;;;8.45;2.83;;;;;;;24.20;57.30;101210.63;5078415;28;20052;-63
2023/08/23 08:48:47;;;;;;;6.10;2.45;;;;;;;24.38;57.52;101213.19;5101918;28;20140;-60
2023/08/23 08:51:19;;;;;;;20.38;2.80;;;;;;;24.39;57.50;101214.03;5091642;28;20078;-63
2023/08/23 08:53:51;;;;;;;8.32;3.35;;;;;;;24.52;57.61;101209.00;5089220;28;20150;-63
2023/08/23 08:56:19;;;;;;;8.55;3.08;;;;;;;24.63;57.40;101205.13;5091795;28;20063;-61
2023/08/23 08:58:48;;;;;;;7.03;3.38;;;;;;;24.67;57.52;101204.63;5080002;28;20040;-60
2023/08/23 09:01:15;;;;;;;7.82;3.33;;;;;;;24.53;57.90;101201.78;5084177;28;20135;-61
2023/08/23 09:03:43;;;;;;;10.00;3.08;;;;;;;24.73;57.67;101203.13;5087515;28;20079;-60
2023/08/23 09:06:10;;;;;;;9.43;2.90;;;;;;;24.80;57.49;101203.28;5070501;28;20068;-60
2023/08/23 09:08:38;;;;;;;4.68;2.17;;;;;;;24.93;56.88;101207.16;5070785;28;20127;-61
2023/08/23 09:11:05;;;;;;;8.10;2.95;;;;;;;25.07;56.54;101208.31;5095495;28;20055;-61
2023/08/23 09:13:32;;;;;;;8.52;2.90;;;;;;;25.33;55.61;101208.13;5087459;28;20075;-61
2023/08/23 09:16:00;;;;;;;11.98;2.78;;;;;;;25.46;54.77;101207.59;5094555;28;20520;-61
2023/08/23 09:18:27;;;;;;;9.45;3.17;;;;;;;25.58;54.77;101208.91;5094023;28;20082;-60
2023/08/23 09:20:55;;;;;;;6.88;2.80;;;;;;;25.70;53.46;101214.72;5090679;28;20054;-63
2023/08/23 09:23:23;;;;;;;11.15;3.88;;;;;;;25.90;53.46;101213.34;5091465;28;20515;-61
2023/08/23 09:25:50;;;;;;;5.35;2.72;;;;;;;26.10;52.25;101216.41;5092658;28;20117;-61
2023/08/23 09:28:18;;;;;;;7.00;2.35;;;;;;;25.66;53.74;101216.94;5089857;28;20056;-58
2023/08/23 09:30:48;;;;;;;6.15;3.30;;;;;;;25.52;53.07;101228.44;5091039;28;20506;-62
2023/08/23 09:33:16;;;;;;;9.57;3.47;;;;;;;25.48;53.45;101216.31;5087273;28;20076;-59
2023/08/23 09:35:48;;;;;;;7.22;2.45;;;;;;;25.87;53.15;101219.06;5071323;28;20095;-62
2023/08/23 09:38:21;;;;;;;4.65;2.25;;;;;;;26.22;51.92;101209.59;5091199;28;20122;-62
2023/08/23 09:40:49;;;;;;;4.18;3.08;;;;;;;26.35;50.44;101227.91;5087867;28;20162;-60
2023/08/23 09:43:16;;;;;;;8.02;2.33;;;;;;;26.20;51.78;101221.59;5091372;28;20467;-62
2023/08/23 09:45:44;;;;;;;5.72;2.63;;;;;;;26.26;51.45;101215.50;5092981;28;20168;-62
2023/08/23 09:48:13;;;;;;;7.15;2.10;;;;;;;26.60;50.18;101216.97;5091395;28;20143;-61
2023/08/23 09:50:40;;;;;;;6.93;2.40;;;;;;;26.57;50.13;101218.19;5071151;28;20160;-62
2023/08/23 09:53:15;;;;;;;8.30;3.10;;;;;;;26.63;49.80;101214.75;5090073;28;20448;-63
2023/08/23 09:55:43;;;;;;;4.95;2.58;;;;;;;26.34;49.16;101215.41;5068978;28;20052;-61
2023/08/23 09:58:10;;;;;;;3.70;1.90;;;;;;;26.41;49.46;101220.97;5092034;28;20113;-61
2023/08/23 10:00:37;;;;;;;5.53;2.20;;;;;;;26.59;48.96;101210.72;5067998;28;20151;-63
2023/08/23 10:03:06;;;;;;;5.80;2.28;;;;;;;26.07;49.51;101222.16;5070660;28;20075;-60
2023/08/23 10:05:35;;;;;;;4.70;1.98;;;;;;;26.11;49.55;101226.19;5075151;28;20123;-56
2023/08/23 10:08:02;;;;;;;8.50;2.45;;;;;;;25.92;49.63;101216.69;5092976;28;20075;-60
2023/08/23 10:10:30;;;;;;;5.80;1.98;;;;;;;25.72;49.90;101224.34;5071981;28;20052;-62
2023/08/23 10:13:00;;;;;;;6.18;1.58;;;;;;;26.10;49.48;101219.13;5074013;28;20762;-62
2023/08/23 10:15:46;;;;;;;8.65;2.05;;;;;;;26.66;48.34;101211.69;5063025;28;20717;-63
2023/08/23 10:18:14;;;;;;;4.82;2.00;;;;;;;26.76;47.33;101216.84;5086425;28;20078;-64
2023/08/23 10:20:42;;;;;;;7.72;2.03;;;;;;;26.63;46.92;101206.63;5053847;28;20389;-63
2023/08/23 10:23:15;;;;;;;3.88;1.80;;;;;;;26.52;47.11;101217.84;5094225;28;20142;-63
2023/08/23 10:25:43;;;;;;;7.90;2.33;;;;;;;26.41;48.00;101219.09;5092650;28;20071;-60
2023/08/23 10:28:16;;;;;;;2.92;1.88;;;;;;;26.30;47.07;101226.75;5091828;28;20410;-63
2023/08/23 10:30:45;;;;;;;6.75;1.75;;;;;;;26.04;48.18;101217.16;5091469;28;20399;-62
2023/08/23 10:33:16;;;;;;;5.25;1.67;;;;;;;26.23;48.14;101216.69;5074642;28;20067;-62
2023/08/23 10:35:45;;;;;;;4.50;1.88;;;;;;;26.02;49.02;101220.00;5093628;28;20606;-63
2023/08/23 10:38:13;;;;;;;4.07;1.45;;;;;;;26.50;48.26;101211.81;5084263;28;20109;-61
2023/08/23 10:40:43;;;;;;;3.72;1.52;;;;;;;26.92;47.08;101205.88;5080108;28;20188;-61
2023/08/23 10:43:14;;;;;;;4.00;1.45;;;;;;;27.24;46.14;101203.88;5091428;28;20052;-61
2023/08/23 10:46:02;;;;;;;6.22;2.22;;;;;;;27.34;44.32;101198.22;5089402;28;20087;-62
2023/08/23 10:48:30;;;;;;;4.07;1.70;;;;;;;27.49;44.89;101201.75;5065494;28;20150;-61
2023/08/23 10:50:58;;;;;;;3.38;1.80;;;;;;;27.29;44.83;101201.50;5073368;28;20051;-62
2023/08/23 10:53:25;;;;;;;5.82;1.48;;;;;;;27.28;45.02;101202.50;5087655;28;20095;-60
2023/08/23 10:55:55;;;;;;;4.88;1.35;;;;;;;27.01;44.61;101220.13;5087637;28;20055;-63
2023/08/23 10:58:23;;;;;;;6.68;1.77;;;;;;;26.89;44.29;101208.97;5092237;28;20127;-60
2023/08/23 11:00:53;;;;;;;8.18;1.45;;;;;;;26.57;45.81;101201.97;5092483;28;20056;-63
2023/08/23 11:03:20;;;;;;;4.15;1.30;;;;;;;26.37;46.24;101203.44;5069822;28;20132;-63
2023/08/23 11:05:48;;;;;;;2.78;1.30;;;;;;;26.65;45.97;101210.00;5073581;28;20047;-61
2023/08/23 11:08:16;;;;;;;5.10;1.70;;;;;;;26.45;46.39;101204.25;5084208;28;20048;-62
2023/08/23 11:10:43;;;;;;;7.57;1.42;;;;;;;26.77;46.71;101192.34;5085803;28;20070;-58
2023/08/23 11:13:11;;;;;;;4.43;1.30;;;;;;;27.20;46.04;101192.63;5107849;28;20075;-60
2023/08/23 11:15:41;;;;;;;3.85;1.45;;;;;;;27.18;45.60;101200.06;5072702;28;20079;-62
2023/08/23 11:18:08;;;;;;;5.55;1.77;;;;;;;26.90;45.39;101190.88;5077377;28;20036;-61
2023/08/23 11:20:35;;;;;;;4.20;1.17;;;;;;;26.99;44.58;101196.00;5097324;28;20127;-64
2023/08/23 11:25:56;;;;;;;4.97;1.77;;;;;;;27.08;43.63;101194.06;5093541;28;20086;-64
2023/08/23 11:28:23;;;;;;;7.18;1.65;;;;;;;26.79;44.67;101180.50;5089563;28;20413;-61
2023/08/23 11:30:50;;;;;;;2.72;1.20;;;;;;;26.85;44.77;101183.31;5098937;28;20079;-60
2023/08/23 11:33:18;;;;;;;4.40;1.27;;;;;;;27.09;43.18;101178.72;5093568;28;20114;-62